Time,TemperatureF,DewpointF,PressureIn,WindDirection,WindDirectionDegrees,WindSpeedMPH,WindSpeedGustMPH,Humidity,HourlyPrecipIn,Conditions,Clouds,dailyrainin,SoftwareType,DateUTC
2013-06-12 07:16:00,59.9,38.5,29.71,South,186,0.0,3.0,45,0.00,,,0.00,Wunderground v.1.15,2013-06-12 13:16:00,
2013-06-12 07:21:00,60.5,39.6,29.71,South,186,0.0,3.0,46,0.00,,,0.00,Wunderground v.1.15,2013-06-12 13:21:00,
2013-06-12 07:26:00,61.0,40.1,29.71,South,186,0.0,3.0,46,0.00,,,0.00,Wunderground v.1.15,2013-06-12 13:26:00,
2013-06-12 07:31:00,61.5,41.1,29.71,South,186,0.0,3.0,47,0.00,,,0.00,Wunderground v.1.15,2013-06-12 13:31:00,
2013-06-12 07:36:00,62.0,42.1,29.72,South,186,0.0,3.0,48,0.00,,,0.00,Wunderground v.1.15,2013-06-12 13:36:00,
2013-06-12 07:41:00,62.6,42.6,29.72,South,186,0.0,3.0,48,0.00,,,0.00,Wunderground v.1.15,2013-06-12 13:41:00,
2013-06-12 07:46:00,63.7,38.3,29.72,South,186,0.0,3.0,39,0.00,,,0.00,Wunderground v.1.15,2013-06-12 13:46:00,
2013-06-12 07:51:00,64.5,39.0,29.72,South,186,0.0,3.0,39,0.00,,,0.00,Wunderground v.1.15,2013-06-12 13:51:00,
2013-06-12 07:56:00,65.6,39.3,29.72,South,186,0.0,3.0,38,0.00,,,0.00,Wunderground v.1.15,2013-06-12 13:56:00,
2013-06-12 08:11:00,68.1,35.5,29.71,South,186,0.0,3.0,30,0.00,,,0.00,Wunderground v.1.15,2013-06-12 14:11:00,
2013-06-12 08:21:00,69.6,37.6,29.70,South,186,0.0,3.0,31,0.00,,,0.00,Wunderground v.1.15,2013-06-12 14:21:00,
2013-06-12 08:26:00,70.3,35.6,29.70,South,186,0.0,3.0,28,0.00,,,0.00,Wunderground v.1.15,2013-06-12 14:26:00,
2013-06-12 08:31:00,70.8,36.1,29.70,South,186,0.0,3.0,28,0.00,,,0.00,Wunderground v.1.15,2013-06-12 14:31:00,
2013-06-12 08:36:00,71.1,38.9,29.69,South,186,0.0,3.0,31,0.00,,,0.00,Wunderground v.1.15,2013-06-12 14:36:00,
2013-06-12 08:46:00,71.6,37.6,29.69,South,186,0.0,3.0,29,0.00,,,0.00,Wunderground v.1.15,2013-06-12 14:46:00,
2013-06-12 08:51:00,71.8,40.3,29.69,South,186,0.0,3.0,32,0.00,,,0.00,Wunderground v.1.15,2013-06-12 14:51:00,
2013-06-12 08:56:00,71.8,39.5,29.69,South,186,0.0,3.0,31,0.00,,,0.00,Wunderground v.1.15,2013-06-12 14:56:00,
2013-06-12 09:01:00,72.1,40.6,29.69,South,186,0.0,3.0,32,0.00,,,0.00,Wunderground v.1.15,2013-06-12 15:01:00,
2013-06-12 09:11:00,73.2,34.2,29.68,South,186,0.0,3.0,24,0.00,,,0.00,Wunderground v.1.15,2013-06-12 15:11:00,
2013-06-12 09:16:00,74.0,35.9,29.68,South,186,0.0,3.0,25,0.00,,,0.00,Wunderground v.1.15,2013-06-12 15:16:00,
2013-06-12 09:21:00,75.3,32.6,29.67,ENE,58,0.0,3.0,21,0.00,,,0.00,Wunderground v.1.15,2013-06-12 15:21:00,
2013-06-12 09:31:00,77.2,31.7,29.67,North,7,0.0,3.0,19,0.00,,,0.00,Wunderground v.1.15,2013-06-12 15:31:00,
2013-06-12 09:36:00,78.1,36.1,29.68,North,7,0.0,3.0,22,0.00,,,0.00,Wunderground v.1.15,2013-06-12 15:36:00,
2013-06-12 09:41:00,78.6,31.5,29.68,NNE,21,0.0,3.0,18,0.00,,,0.00,Wunderground v.1.15,2013-06-12 15:41:00,
2013-06-12 09:46:00,79.2,35.9,29.68,NE,38,0.0,3.0,21,0.00,,,0.00,Wunderground v.1.15,2013-06-12 15:46:00,
2013-06-12 09:51:00,79.6,33.7,29.66,NE,47,0.0,3.0,19,0.00,,,0.00,Wunderground v.1.15,2013-06-12 15:51:00,
2013-06-12 10:01:00,80.1,34.1,29.66,NE,52,0.0,3.0,19,0.00,,,0.00,Wunderground v.1.15,2013-06-12 16:01:00,
2013-06-12 10:11:00,80.9,33.4,29.66,ENE,64,0.0,3.0,18,0.00,,,0.00,Wunderground v.1.15,2013-06-12 16:11:00,
2013-06-12 10:16:00,81.2,33.6,29.66,SE,124,0.0,3.0,18,0.00,,,0.00,Wunderground v.1.15,2013-06-12 16:16:00,
2013-06-12 10:21:00,81.8,32.7,29.65,ENE,59,0.0,3.0,17,0.00,,,0.00,Wunderground v.1.15,2013-06-12 16:21:00,
2013-06-12 10:26:00,82.0,31.4,29.65,NE,52,0.0,3.0,16,0.00,,,0.00,Wunderground v.1.15,2013-06-12 16:26:00,
2013-06-12 10:31:00,82.2,31.5,29.65,NNE,17,0.0,3.0,16,0.00,,,0.00,Wunderground v.1.15,2013-06-12 16:31:00,
2013-06-12 13:26:00,92.3,34.3,29.58,NE,52,0.0,3.0,13,0.00,,,0.00,Wunderground v.1.15,2013-06-12 19:26:00,
2013-06-12 13:36:00,92.9,34.8,29.56,East,90,1.0,3.0,13,0.00,,,0.00,Wunderground v.1.15,2013-06-12 19:36:00,
2013-06-12 13:41:00,93.4,33.2,29.56,NW,325,0.0,3.0,12,0.00,,,0.00,Wunderground v.1.15,2013-06-12 19:41:00,
2013-06-12 13:46:00,94.0,33.7,29.56,NE,40,0.0,3.0,12,0.00,,,0.00,Wunderground v.1.15,2013-06-12 19:46:00,
2013-06-12 13:56:00,94.5,34.0,29.54,NNW,339,0.0,3.0,12,0.00,,,0.00,Wunderground v.1.15,2013-06-12 19:56:00,
2013-06-12 14:01:00,94.5,31.9,29.54,ENE,71,1.0,1.0,11,0.00,,,0.00,Wunderground v.1.15,2013-06-12 20:01:00,
2013-06-12 14:11:00,94.9,32.2,29.53,ENE,65,0.0,3.0,11,0.00,,,0.00,Wunderground v.1.15,2013-06-12 20:11:00,
2013-06-12 14:16:00,94.9,29.8,29.53,NNW,343,1.0,3.0,10,0.00,,,0.00,Wunderground v.1.15,2013-06-12 20:16:00,
2013-06-12 14:21:00,94.9,32.2,29.53,NE,47,1.0,1.0,11,0.00,,,0.00,Wunderground v.1.15,2013-06-12 20:21:00,
2013-06-12 14:26:00,94.5,34.0,29.53,ENE,65,1.0,3.0,12,0.00,,,0.00,Wunderground v.1.15,2013-06-12 20:26:00,
2013-06-12 14:31:00,94.3,31.7,29.53,NNW,343,1.0,1.0,11,0.00,,,0.00,Wunderground v.1.15,2013-06-12 20:31:00,
2013-06-12 14:41:00,93.8,33.5,29.55,NE,54,0.0,3.0,12,0.00,,,0.00,Wunderground v.1.15,2013-06-12 20:41:00,
2013-06-12 14:46:00,93.6,33.3,29.55,NNW,332,0.0,3.0,12,0.00,,,0.00,Wunderground v.1.15,2013-06-12 20:46:00,
2013-06-12 14:51:00,93.4,31.0,29.55,NE,34,1.0,1.0,11,0.00,,,0.00,Wunderground v.1.15,2013-06-12 20:51:00,
2013-06-12 14:56:00,93.4,31.0,29.55,NE,51,1.0,3.0,11,0.00,,,0.00,Wunderground v.1.15,2013-06-12 20:56:00,
2013-06-12 15:01:00,93.4,31.0,29.55,NNW,337,0.0,3.0,11,0.00,,,0.00,Wunderground v.1.15,2013-06-12 21:01:00,
2013-06-12 15:11:00,92.9,30.6,29.55,ESE,113,1.0,3.0,11,0.00,,,0.00,Wunderground v.1.15,2013-06-12 21:11:00,
2013-06-12 15:16:00,92.9,32.8,29.55,NW,325,1.0,3.0,12,0.00,,,0.00,Wunderground v.1.15,2013-06-12 21:16:00,
2013-06-12 15:26:00,92.5,30.3,29.53,NNE,28,1.0,3.0,11,0.00,,,0.00,Wunderground v.1.15,2013-06-12 21:26:00,
2013-06-12 15:31:00,92.5,32.5,29.53,North,0,1.0,1.0,12,0.00,,,0.00,Wunderground v.1.15,2013-06-12 21:31:00,
2013-06-12 15:36:00,92.7,32.6,29.56,NE,35,1.0,3.0,12,0.00,,,0.00,Wunderground v.1.15,2013-06-12 21:36:00,
2013-06-12 15:41:00,92.9,30.6,29.56,NE,54,0.0,3.0,11,0.00,,,0.00,Wunderground v.1.15,2013-06-12 21:41:00,
2013-06-12 15:46:00,93.4,31.0,29.56,NNW,346,1.0,3.0,11,0.00,,,0.00,Wunderground v.1.15,2013-06-12 21:46:00,
2013-06-12 15:56:00,93.8,31.3,29.55,East,99,0.0,3.0,11,0.00,,,0.00,Wunderground v.1.15,2013-06-12 21:56:00,
2013-06-12 16:01:00,94.0,29.1,29.55,NE,37,1.0,1.0,10,0.00,,,0.00,Wunderground v.1.15,2013-06-12 22:01:00,
2013-06-12 16:11:00,94.0,29.1,29.55,North,0,0.0,3.0,10,0.00,,,0.00,Wunderground v.1.15,2013-06-12 22:11:00,
2013-06-12 16:16:00,94.3,31.7,29.55,NE,49,0.0,3.0,11,0.00,,,0.00,Wunderground v.1.15,2013-06-12 22:16:00,
2013-06-12 16:21:00,94.5,31.9,29.54,North,1,1.0,3.0,11,0.00,,,0.00,Wunderground v.1.15,2013-06-12 22:21:00,
2013-06-12 16:26:00,94.3,29.4,29.54,ENE,59,1.0,3.0,10,0.00,,,0.00,Wunderground v.1.15,2013-06-12 22:26:00,
2013-06-12 16:36:00,93.8,29.0,29.55,NNW,339,1.0,3.0,10,0.00,,,0.00,Wunderground v.1.15,2013-06-12 22:36:00,
2013-06-12 16:41:00,93.4,31.0,29.55,North,7,1.0,1.0,11,0.00,,,0.00,Wunderground v.1.15,2013-06-12 22:41:00,
2013-06-12 16:56:00,92.5,30.3,29.56,NNE,32,0.0,3.0,11,0.00,,,0.00,Wunderground v.1.15,2013-06-12 22:56:00,
2013-06-12 17:01:00,92.5,32.5,29.56,NE,40,1.0,1.0,12,0.00,,,0.00,Wunderground v.1.15,2013-06-12 23:01:00,
2013-06-12 17:11:00,92.3,30.2,29.55,South,188,1.0,1.0,11,0.00,,,0.00,Wunderground v.1.15,2013-06-12 23:11:00,
2013-06-12 17:16:00,91.8,29.8,29.55,NE,47,1.0,3.0,11,0.00,,,0.00,Wunderground v.1.15,2013-06-12 23:16:00,
2013-06-12 17:21:00,91.6,29.6,29.55,North,10,0.0,3.0,11,0.00,,,0.00,Wunderground v.1.15,2013-06-12 23:21:00,
2013-06-12 17:26:00,91.4,31.6,29.55,North,354,0.0,3.0,12,0.00,,,0.00,Wunderground v.1.15,2013-06-12 23:26:00,
2013-06-12 17:31:00,91.0,29.2,29.55,ENE,61,0.0,3.0,11,0.00,,,0.00,Wunderground v.1.15,2013-06-12 23:31:00,
2013-06-12 17:41:00,90.5,30.9,29.57,NE,42,0.0,3.0,12,0.00,,,0.00,Wunderground v.1.15,2013-06-12 23:41:00,
2013-06-12 17:46:00,90.1,30.6,29.57,NE,51,0.0,3.0,12,0.00,,,0.00,Wunderground v.1.15,2013-06-12 23:46:00,
2013-06-12 17:51:00,89.7,30.3,29.58,NE,52,0.0,3.0,12,0.00,,,0.00,Wunderground v.1.15,2013-06-12 23:51:00,
2013-06-12 17:56:00,89.5,30.2,29.58,ENE,64,0.0,3.0,12,0.00,,,0.00,Wunderground v.1.15,2013-06-12 23:56:00,
2013-06-12 18:11:00,88.0,29.0,29.60,South,172,2.0,2.0,12,0.00,,,0.00,Wunderground v.1.15,2013-06-13 00:11:00,
2013-06-12 18:16:00,87.8,28.9,29.60,South,191,2.0,3.0,12,0.00,,,0.00,Wunderground v.1.15,2013-06-13 00:16:00,
2013-06-12 18:26:00,87.2,30.4,29.61,ENE,76,1.0,3.0,13,0.00,,,0.00,Wunderground v.1.15,2013-06-13 00:26:00,
2013-06-12 18:31:00,87.2,28.4,29.61,WSW,237,1.0,1.0,12,0.00,,,0.00,Wunderground v.1.15,2013-06-13 00:31:00,
2013-06-12 18:36:00,87.4,30.5,29.60,SSW,200,1.0,3.0,13,0.00,,,0.00,Wunderground v.1.15,2013-06-13 00:36:00,
2013-06-12 18:41:00,87.6,30.7,29.60,SSW,200,1.0,1.0,13,0.00,,,0.00,Wunderground v.1.15,2013-06-13 00:41:00,
2013-06-12 18:46:00,87.6,30.7,29.60,NE,51,0.0,3.0,13,0.00,,,0.00,Wunderground v.1.15,2013-06-13 00:46:00,
2013-06-12 18:56:00,87.2,32.2,29.60,NE,51,0.0,3.0,14,0.00,,,0.00,Wunderground v.1.15,2013-06-13 00:56:00,
2013-06-12 19:01:00,86.7,30.0,29.60,South,185,0.0,3.0,13,0.00,,,0.00,Wunderground v.1.15,2013-06-13 01:01:00,
2013-06-12 19:11:00,86.7,36.7,29.58,South,185,0.0,3.0,17,0.00,,,0.00,Wunderground v.1.15,2013-06-13 01:11:00,
2013-06-12 19:16:00,86.5,36.5,29.58,South,185,0.0,3.0,17,0.00,,,0.00,Wunderground v.1.15,2013-06-13 01:16:00,
2013-06-12 19:21:00,86.1,34.7,29.58,South,185,0.0,3.0,16,0.00,,,0.00,Wunderground v.1.15,2013-06-13 01:21:00,
2013-06-12 19:26:00,85.7,34.3,29.58,South,185,0.0,3.0,16,0.00,,,0.00,Wunderground v.1.15,2013-06-13 01:26:00,
2013-06-12 19:36:00,85.3,34.0,29.56,South,185,0.0,3.0,16,0.00,,,0.00,Wunderground v.1.15,2013-06-13 01:36:00,
2013-06-12 19:41:00,84.9,33.7,29.56,South,185,0.0,3.0,16,0.00,,,0.00,Wunderground v.1.15,2013-06-13 01:41:00,
2013-06-12 19:46:00,84.5,33.4,29.56,South,185,0.0,3.0,16,0.00,,,0.00,Wunderground v.1.15,2013-06-13 01:46:00,
2013-06-12 19:51:00,84.3,34.7,29.56,South,185,0.0,3.0,17,0.00,,,0.00,Wunderground v.1.15,2013-06-13 01:51:00,
2013-06-12 20:01:00,84.0,31.4,29.56,South,185,0.0,3.0,15,0.00,,,0.00,Wunderground v.1.15,2013-06-13 02:01:00,
2013-06-12 20:11:00,83.6,35.6,29.58,South,185,0.0,3.0,18,0.00,,,0.00,Wunderground v.1.15,2013-06-13 02:11:00,
2013-06-12 20:21:00,83.0,32.2,29.61,SSW,209,1.0,6.0,16,0.00,,,0.00,Wunderground v.1.15,2013-06-13 02:21:00,
2013-06-12 20:26:00,83.6,29.3,29.61,NE,40,3.0,6.0,14,0.00,,,0.00,Wunderground v.1.15,2013-06-13 02:26:00,
2013-06-12 20:31:00,84.1,31.4,29.61,NE,35,2.0,2.0,15,0.00,,,0.00,Wunderground v.1.15,2013-06-13 02:31:00,
2013-06-12 20:36:00,84.5,30.1,29.56,SSW,199,1.0,3.0,14,0.00,,,0.00,Wunderground v.1.15,2013-06-13 02:36:00,
2013-06-12 20:41:00,84.7,28.4,29.56,SSW,208,1.0,3.0,13,0.00,,,0.00,Wunderground v.1.15,2013-06-13 02:41:00,
2013-06-12 20:51:00,84.7,31.9,29.55,SSW,208,0.0,3.0,15,0.00,,,0.00,Wunderground v.1.15,2013-06-13 02:51:00,
2013-06-12 20:56:00,84.3,33.2,29.55,SSW,208,0.0,3.0,16,0.00,,,0.00,Wunderground v.1.15,2013-06-13 02:56:00,
2013-06-12 21:01:00,83.8,34.3,29.55,SSW,208,0.0,3.0,17,0.00,,,0.00,Wunderground v.1.15,2013-06-13 03:01:00,
2013-06-12 21:11:00,82.6,36.1,29.57,SSW,208,0.0,3.0,19,0.00,,,0.00,Wunderground v.1.15,2013-06-13 03:11:00,
2013-06-12 21:16:00,81.8,38.0,29.57,SSW,208,0.0,3.0,21,0.00,,,0.00,Wunderground v.1.15,2013-06-13 03:16:00,
2013-06-12 21:21:00,80.9,37.3,29.58,SSW,208,0.0,3.0,21,0.00,,,0.00,Wunderground v.1.15,2013-06-13 03:21:00,
2013-06-12 21:26:00,80.3,36.8,29.58,SSW,208,0.0,3.0,21,0.00,,,0.00,Wunderground v.1.15,2013-06-13 03:26:00,
2013-06-12 21:36:00,79.0,34.5,29.56,SSW,208,0.0,3.0,20,0.00,,,0.00,Wunderground v.1.15,2013-06-13 03:36:00,
2013-06-12 21:41:00,78.8,33.0,29.56,SSW,208,0.0,3.0,19,0.00,,,0.00,Wunderground v.1.15,2013-06-13 03:41:00,
2013-06-12 21:46:00,78.6,31.5,29.56,SSW,208,0.0,3.0,18,0.00,,,0.00,Wunderground v.1.15,2013-06-13 03:46:00,
2013-06-12 21:51:00,78.6,28.6,29.57,SSW,208,0.0,3.0,16,0.00,,,0.00,Wunderground v.1.15,2013-06-13 03:51:00,
2013-06-12 21:56:00,79.4,27.7,29.57,ENE,76,0.0,3.0,15,0.00,,,0.00,Wunderground v.1.15,2013-06-13 03:56:00,
2013-06-12 22:01:00,80.1,28.3,29.57,ESE,109,1.0,1.0,15,0.00,,,0.00,Wunderground v.1.15,2013-06-13 04:01:00,
2013-06-12 22:11:00,81.6,27.8,29.57,ENE,62,1.0,1.0,14,0.00,,,0.00,Wunderground v.1.15,2013-06-13 04:11:00,
2013-06-12 22:16:00,82.0,28.1,29.57,North,0,1.0,3.0,14,0.00,,,0.00,Wunderground v.1.15,2013-06-13 04:16:00,
2013-06-12 22:21:00,82.4,28.4,29.56,NE,55,0.0,3.0,14,0.00,,,0.00,Wunderground v.1.15,2013-06-13 04:21:00,
2013-06-12 22:26:00,82.6,28.6,29.56,NNE,28,1.0,3.0,14,0.00,,,0.00,Wunderground v.1.15,2013-06-13 04:26:00,
2013-06-12 22:31:00,82.6,28.6,29.56,NNE,28,0.0,3.0,14,0.00,,,0.00,Wunderground v.1.15,2013-06-13 04:31:00,
2013-06-12 22:36:00,82.4,28.4,29.54,NNE,32,0.0,3.0,14,0.00,,,0.00,Wunderground v.1.15,2013-06-13 04:36:00,
2013-06-12 22:46:00,82.2,28.2,29.54,North,359,0.0,3.0,14,0.00,,,0.00,Wunderground v.1.15,2013-06-13 04:46:00,
2013-06-12 22:51:00,82.2,28.2,29.55,NE,38,1.0,1.0,14,0.00,,,0.00,Wunderground v.1.15,2013-06-13 04:51:00,